Time;durP1;ratioP1;P1;durP2;ratioP2;P2;SDS_P1;SDS_P2;PMS_P1;PMS_P2;Temp;Humidity;BMP_temperature;BMP_pressure;BME280_temperature;BME280_humidity;BME280_pressure;Samples;Min_cycle;Max_cycle;Signal;HPM_P1;HPM_P2
2022/10/13 00:01:12;;;;;;;;;;;5.40;99.90;;;;;;5080756;27;1716;-56
2022/10/13 00:03:51;;;;;;;;;;;5.40;99.90;;;;;;5114268;27;1253;-56
2022/10/13 00:06:32;;;;;;;;;;;5.70;99.90;;;;;;5081722;27;1382;-56
2022/10/13 00:09:12;;;;;;;;;;;5.80;99.90;;;;;;5110635;27;1413;-56
2022/10/13 00:11:50;;;;;;;;;;;5.80;99.90;;;;;;5103083;27;1681;-56
2022/10/13 00:14:28;;;;;;;;;;;5.70;99.90;;;;;;5096709;27;1864;-56
2022/10/13 00:17:06;;;;;;;;;;;5.70;99.90;;;;;;5098370;27;1625;-56
2022/10/13 00:19:45;;;;;;;;;;;5.70;99.90;;;;;;5102169;27;1341;-56
2022/10/13 00:22:23;;;;;;;;;;;5.60;99.90;;;;;;5103045;27;1284;-56
2022/10/13 00:25:01;;;;;;;;;;;5.70;99.90;;;;;;5103510;27;1378;-56
2022/10/13 00:27:41;;;;;;;;;;;5.60;99.90;;;;;;5094543;27;1300;-57
2022/10/13 00:30:19;;;;;;;;;;;5.50;99.90;;;;;;5102825;27;1586;-56
2022/10/13 00:32:59;;;;;;;;;;;5.40;99.90;;;;;;5099278;27;1625;-56
2022/10/13 00:35:41;;;;;;;;;;;5.40;99.90;;;;;;5082745;27;1694;-56
2022/10/13 00:38:22;;;;;;;;;;;5.30;99.90;;;;;;5088412;27;1303;-56
2022/10/13 00:41:00;;;;;;;;;;;5.40;99.90;;;;;;5080821;27;1502;-56
2022/10/13 00:43:56;;;;;;;;;;;5.40;99.90;;;;;;5103045;27;1676;-56
2022/10/13 00:46:36;;;;;;;;;;;5.30;99.90;;;;;;5094008;27;1298;-56
2022/10/13 00:49:16;;;;;;;;;;;5.30;99.90;;;;;;5098993;27;1954;-56
2022/10/13 00:51:59;;;;;;;;;;;5.20;99.90;;;;;;5100703;27;1394;-56
2022/10/13 00:54:37;;;;;;;;;;;5.20;99.90;;;;;;5101199;27;1289;-55
2022/10/13 00:57:15;;;;;;;;;;;5.20;99.90;;;;;;5102635;27;1389;-56
2022/10/13 01:00:08;;;;;;;;;;;5.30;99.90;;;;;;5102738;27;1213;-54
2022/10/13 01:02:46;;;;;;;;;;;5.70;99.90;;;;;;5103475;27;1296;-56
2022/10/13 01:05:25;;;;;;;;;;;6.10;99.90;;;;;;5082518;27;1670;-56
2022/10/13 01:08:07;;;;;;;;;;;6.40;99.90;;;;;;5096165;27;1735;-56
2022/10/13 01:10:53;;;;;;;;;;;6.70;99.90;;;;;;5082000;27;1387;-56
2022/10/13 01:13:34;;;;;;;;;;;6.80;99.90;;;;;;5079257;27;1765;-56
2022/10/13 01:16:20;;;;;;;;;;;7.00;99.90;;;;;;5101536;27;1398;-56
2022/10/13 01:19:05;;;;;;;;;;;7.10;99.90;;;;;;5101642;27;1452;-56
2022/10/13 01:21:47;;;;;;;;;;;7.30;99.90;;;;;;5103173;27;1436;-56
2022/10/13 01:24:48;;;;;;;;;;;7.30;99.90;;;;;;5103300;27;1570;-56
2022/10/13 01:27:49;;;;;;;;;;;7.40;99.90;;;;;;5096409;27;1344;-56
2022/10/13 01:30:28;;;;;;;;;;;7.50;99.90;;;;;;5102459;27;1393;-56
2022/10/13 01:33:19;;;;;;;;;;;7.50;99.90;;;;;;5098336;27;1599;-56
2022/10/13 01:36:05;;;;;;;;;;;7.50;99.90;;;;;;5101628;27;1402;-56
2022/10/13 01:38:50;;;;;;;;;;;7.50;99.90;;;;;;5095988;27;1735;-56
2022/10/13 01:41:33;;;;;;;;;;;7.40;99.90;;;;;;5102647;27;1240;-56
2022/10/13 01:44:15;;;;;;;;;;;7.40;99.90;;;;;;5100174;27;1425;-57
2022/10/13 01:47:02;;;;;;;;;;;7.30;99.90;;;;;;5100384;27;1332;-56
2022/10/13 01:49:42;;;;;;;;;;;7.20;99.90;;;;;;5102162;27;1450;-56
2022/10/13 01:52:23;;;;;;;;;;;7.20;99.90;;;;;;5103171;27;1304;-56
2022/10/13 01:55:06;;;;;;;;;;;7.20;99.90;;;;;;5092033;27;1590;-56
2022/10/13 01:57:46;;;;;;;;;;;7.30;99.90;;;;;;5092779;27;1421;-56
2022/10/13 02:00:24;;;;;;;;;;;7.30;99.90;;;;;;5100720;27;1696;-56
2022/10/13 02:03:07;;;;;;;;;;;7.40;99.90;;;;;;5081757;27;1972;-56
2022/10/13 02:05:48;;;;;;;;;;;7.40;99.90;;;;;;5101690;27;1208;-56
2022/10/13 02:08:30;;;;;;;;;;;7.50;99.90;;;;;;5102152;27;1492;-56
2022/10/13 02:11:12;;;;;;;;;;;7.50;99.90;;;;;;5102533;27;1301;-56
2022/10/13 02:13:54;;;;;;;;;;;7.60;99.90;;;;;;5098087;27;1639;-56
2022/10/13 02:16:38;;;;;;;;;;;7.60;99.90;;;;;;5100822;27;1265;-56
2022/10/13 02:19:18;;;;;;;;;;;7.60;99.90;;;;;;5100229;27;1277;-56
2022/10/13 02:21:57;;;;;;;;;;;7.60;99.90;;;;;;5082940;27;1265;-56
2022/10/13 02:24:37;;;;;;;;;;;7.70;99.90;;;;;;5102480;27;1639;-56
2022/10/13 02:27:16;;;;;;;;;;;7.60;99.90;;;;;;5077662;27;1352;-56
2022/10/13 02:29:56;;;;;;;;;;;7.70;99.90;;;;;;5102211;27;1300;-56
2022/10/13 02:32:40;;;;;;;;;;;7.70;99.90;;;;;;5102928;27;1708;-56
2022/10/13 02:35:19;;;;;;;;;;;7.80;99.90;;;;;;5062911;27;1702;-55
2022/10/13 02:37:57;;;;;;;;;;;7.80;99.90;;;;;;5098081;27;1564;-57
2022/10/13 02:40:35;;;;;;;;;;;7.80;99.90;;;;;;5102073;27;1268;-56
2022/10/13 02:43:14;;;;;;;;;;;7.80;99.90;;;;;;5103773;27;1584;-55
2022/10/13 02:45:52;;;;;;;;;;;7.90;99.90;;;;;;5102009;27;1220;-56
2022/10/13 02:48:30;;;;;;;;;;;7.90;99.90;;;;;;5103162;27;1304;-56
2022/10/13 02:51:08;;;;;;;;;;;8.00;99.90;;;;;;5103383;27;1382;-56
2022/10/13 02:53:47;;;;;;;;;;;8.00;99.90;;;;;;5078104;27;1706;-56
2022/10/13 02:56:26;;;;;;;;;;;8.10;99.90;;;;;;5099667;27;1712;-56
2022/10/13 02:59:05;;;;;;;;;;;8.10;99.90;;;;;;5098578;27;1411;-56
2022/10/13 03:01:43;;;;;;;;;;;8.10;99.90;;;;;;5102258;27;1417;-56
2022/10/13 03:04:21;;;;;;;;;;;8.20;99.90;;;;;;5103556;27;1405;-55
2022/10/13 03:07:00;;;;;;;;;;;8.30;99.90;;;;;;5099786;27;1358;-57
2022/10/13 03:09:39;;;;;;;;;;;8.30;99.90;;;;;;5102461;27;1360;-55
2022/10/13 03:12:17;;;;;;;;;;;8.30;99.90;;;;;;5083221;27;1446;-56
2022/10/13 03:14:56;;;;;;;;;;;8.30;99.90;;;;;;5103418;27;1611;-56
2022/10/13 03:17:34;;;;;;;;;;;8.40;99.90;;;;;;5095542;27;1280;-56
2022/10/13 03:20:12;;;;;;;;;;;8.40;99.90;;;;;;5082497;27;1406;-56
2022/10/13 03:22:51;;;;;;;;;;;8.30;99.90;;;;;;5092454;27;1428;-56
2022/10/13 03:25:31;;;;;;;;;;;8.40;99.90;;;;;;5086531;27;1601;-57
2022/10/13 03:28:10;;;;;;;;;;;8.40;99.90;;;;;;5089687;27;1768;-56
2022/10/13 03:30:48;;;;;;;;;;;8.40;99.90;;;;;;5095083;27;1309;-56
2022/10/13 03:33:26;;;;;;;;;;;8.40;99.90;;;;;;5103525;27;1406;-56
2022/10/13 03:36:08;;;;;;;;;;;8.40;99.90;;;;;;5104267;27;1349;-56
2022/10/13 03:38:46;;;;;;;;;;;8.50;99.90;;;;;;5103276;27;1296;-56
2022/10/13 03:41:24;;;;;;;;;;;8.50;99.90;;;;;;5104186;27;1216;-56
2022/10/13 03:44:03;;;;;;;;;;;8.60;99.90;;;;;;5098447;27;1742;-56
2022/10/13 03:46:41;;;;;;;;;;;8.60;99.90;;;;;;5102165;27;1378;-56
2022/10/13 03:49:19;;;;;;;;;;;8.60;99.90;;;;;;5098572;27;1700;-54
2022/10/13 03:51:57;;;;;;;;;;;8.70;99.90;;;;;;5061341;27;1297;-54
2022/10/13 03:54:35;;;;;;;;;;;8.70;99.90;;;;;;5101897;27;1217;-54
2022/10/13 03:57:14;;;;;;;;;;;8.70;99.90;;;;;;5101679;27;1532;-54
2022/10/13 03:59:54;;;;;;;;;;;8.70;99.90;;;;;;5102263;27;1486;-54
2022/10/13 04:02:34;;;;;;;;;;;8.70;99.90;;;;;;5102229;27;1456;-54
2022/10/13 04:05:12;;;;;;;;;;;8.80;99.90;;;;;;5099221;27;1963;-54
2022/10/13 04:07:50;;;;;;;;;;;8.70;99.90;;;;;;5091354;27;1308;-54
2022/10/13 04:10:36;;;;;;;;;;;8.80;99.90;;;;;;5101963;27;1631;-55
2022/10/13 04:13:14;;;;;;;;;;;8.80;99.90;;;;;;5082706;27;1210;-54
2022/10/13 04:15:54;;;;;;;;;;;8.80;99.90;;;;;;5102927;27;1799;-54
2022/10/13 04:18:32;;;;;;;;;;;8.80;99.90;;;;;;5087416;27;1508;-54
2022/10/13 04:21:12;;;;;;;;;;;8.90;99.90;;;;;;5080662;27;1361;-54
2022/10/13 04:23:50;;;;;;;;;;;8.90;99.90;;;;;;5079489;27;1608;-54
2022/10/13 04:26:30;;;;;;;;;;;8.90;99.90;;;;;;5080797;27;1366;-55
2022/10/13 04:29:11;;;;;;;;;;;8.90;99.90;;;;;;5080430;27;1383;-55
2022/10/13 04:31:50;;;;;;;;;;;9.00;99.90;;;;;;5102977;27;1317;-56
2022/10/13 04:34:28;;;;;;;;;;;9.00;99.90;;;;;;5103241;27;1373;-58
2022/10/13 04:37:08;;;;;;;;;;;9.00;99.90;;;;;;5099391;27;1323;-56
2022/10/13 04:39:46;;;;;;;;;;;9.00;99.90;;;;;;5101813;27;2828;-55
2022/10/13 04:42:24;;;;;;;;;;;9.10;99.90;;;;;;5101313;27;1750;-56
2022/10/13 04:45:03;;;;;;;;;;;9.10;99.90;;;;;;5075650;27;1900;-57
2022/10/13 04:47:43;;;;;;;;;;;9.10;99.90;;;;;;5091968;27;1711;-55
2022/10/13 04:50:21;;;;;;;;;;;9.10;99.90;;;;;;5085839;27;1564;-56
2022/10/13 04:53:10;;;;;;;;;;;9.20;99.90;;;;;;5102011;27;1501;-57
2022/10/13 04:55:48;;;;;;;;;;;9.20;99.90;;;;;;5103259;27;1198;-55
2022/10/13 04:58:27;;;;;;;;;;;9.20;99.90;;;;;;5088697;27;1577;-57
2022/10/13 05:01:06;;;;;;;;;;;9.20;99.90;;;;;;5103348;27;1385;-55
2022/10/13 05:03:45;;;;;;;;;;;9.30;99.90;;;;;;5099983;27;1626;-55
2022/10/13 05:06:24;;;;;;;;;;;9.40;99.90;;;;;;5100341;27;1617;-55
2022/10/13 05:09:09;;;;;;;;;;;9.40;99.90;;;;;;5100768;27;1304;-56
2022/10/13 05:11:47;;;;;;;;;;;9.60;99.90;;;;;;5102153;27;2004;-54
2022/10/13 05:14:26;;;;;;;;;;;9.60;99.90;;;;;;5102615;27;1398;-56
2022/10/13 05:17:04;;;;;;;;;;;9.70;99.90;;;;;;5102649;27;1606;-56
2022/10/13 05:19:42;;;;;;;;;;;9.70;99.90;;;;;;5081295;27;1407;-56
2022/10/13 05:22:20;;;;;;;;;;;9.70;99.90;;;;;;5103574;27;1377;-54
2022/10/13 05:25:02;;;;;;;;;;;9.70;99.90;;;;;;5099274;27;1995;-54
2022/10/13 05:27:40;;;;;;;;;;;9.80;99.90;;;;;;5093855;27;1407;-54
2022/10/13 05:30:21;;;;;;;;;;;9.80;99.90;;;;;;5096505;27;1302;-55
2022/10/13 05:33:00;;;;;;;;;;;9.80;99.90;;;;;;5103197;27;1323;-55
2022/10/13 05:35:38;;;;;;;;;;;9.70;99.90;;;;;;5102927;27;1285;-54
2022/10/13 05:38:16;;;;;;;;;;;9.70;99.90;;;;;;5090721;27;1616;-54
2022/10/13 05:40:54;;;;;;;;;;;9.60;99.90;;;;;;5066439;27;1317;-54
2022/10/13 05:43:33;;;;;;;;;;;9.40;99.90;;;;;;5100471;27;2068;-54
2022/10/13 05:46:12;;;;;;;;;;;9.40;99.90;;;;;;5099534;27;1559;-55
2022/10/13 05:48:51;;;;;;;;;;;9.30;99.90;;;;;;5101215;27;1494;-54
2022/10/13 05:51:32;;;;;;;;;;;9.30;99.90;;;;;;5083233;27;1391;-54
2022/10/13 05:54:13;;;;;;;;;;;9.40;99.90;;;;;;5098929;27;1595;-55
2022/10/13 05:56:54;;;;;;;;;;;9.50;99.90;;;;;;5100945;27;1375;-54
2022/10/13 05:59:35;;;;;;;;;;;9.40;99.90;;;;;;5081481;27;1197;-54
2022/10/13 06:02:15;;;;;;;;;;;9.40;99.90;;;;;;5103935;27;1240;-56
2022/10/13 06:04:56;;;;;;;;;;;9.50;99.90;;;;;;5103833;27;1620;-57
2022/10/13 06:07:36;;;;;;;;;;;9.60;99.90;;;;;;5097904;27;1631;-56
2022/10/13 06:10:14;;;;;;;;;;;9.60;99.90;;;;;;5099183;27;1743;-54
2022/10/13 06:12:52;;;;;;;;;;;9.70;99.90;;;;;;5082533;27;1376;-56
2022/10/13 06:15:30;;;;;;;;;;;9.80;99.90;;;;;;5089887;27;1394;-57
2022/10/13 06:18:10;;;;;;;;;;;10.00;99.90;;;;;;5070166;27;1474;-56
2022/10/13 06:20:49;;;;;;;;;;;10.20;99.90;;;;;;5103192;27;1731;-58
2022/10/13 06:23:28;;;;;;;;;;;10.30;99.90;;;;;;5099422;27;2278;-56
2022/10/13 06:26:08;;;;;;;;;;;10.40;99.90;;;;;;5082029;27;1261;-57
2022/10/13 06:28:48;;;;;;;;;;;10.50;99.90;;;;;;5065067;27;1293;-54
2022/10/13 06:31:28;;;;;;;;;;;10.50;99.90;;;;;;5075106;27;1652;-55
2022/10/13 06:34:06;;;;;;;;;;;10.60;99.90;;;;;;5080600;27;1586;-57
2022/10/13 06:36:44;;;;;;;;;;;10.70;99.90;;;;;;5080069;27;1620;-54
2022/10/13 06:39:22;;;;;;;;;;;10.70;99.90;;;;;;5085652;27;1661;-54
2022/10/13 06:42:01;;;;;;;;;;;10.70;99.90;;;;;;5082542;27;1395;-54
2022/10/13 06:44:41;;;;;;;;;;;10.70;99.90;;;;;;5102312;27;1391;-53
2022/10/13 06:47:19;;;;;;;;;;;10.70;99.90;;;;;;5098797;27;1295;-54
2022/10/13 06:49:57;;;;;;;;;;;10.80;99.90;;;;;;5103667;27;1289;-55
2022/10/13 06:52:35;;;;;;;;;;;10.80;99.90;;;;;;5085089;27;1497;-55
2022/10/13 06:55:13;;;;;;;;;;;10.80;99.90;;;;;;5062312;27;1568;-55
2022/10/13 06:57:52;;;;;;;;;;;10.80;99.90;;;;;;5098765;27;1672;-56
2022/10/13 07:00:30;;;;;;;;;;;10.80;99.90;;;;;;5074205;27;1436;-56
2022/10/13 07:03:08;;;;;;;;;;;10.90;99.90;;;;;;5103594;27;1573;-55
2022/10/13 07:05:46;;;;;;;;;;;11.00;99.90;;;;;;5103337;27;1685;-55
2022/10/13 07:08:25;;;;;;;;;;;11.00;99.90;;;;;;5083195;27;1390;-55
2022/10/13 07:11:08;;;;;;;;;;;11.20;99.90;;;;;;5103235;27;1782;-55
2022/10/13 07:13:47;;;;;;;;;;;11.30;99.90;;;;;;5089211;27;1841;-54
2022/10/13 07:16:27;;;;;;;;;;;11.30;99.90;;;;;;5079428;27;1683;-54
2022/10/13 07:19:05;;;;;;;;;;;11.30;99.90;;;;;;5056617;27;1305;-55
2022/10/13 07:21:44;;;;;;;;;;;11.50;99.90;;;;;;5102243;27;1386;-56
2022/10/13 07:24:22;;;;;;;;;;;11.60;99.90;;;;;;5065098;27;1346;-54
2022/10/13 07:27:00;;;;;;;;;;;11.60;99.90;;;;;;5101711;27;1365;-54
2022/10/13 07:29:38;;;;;;;;;;;11.80;99.90;;;;;;5102966;27;1230;-55
2022/10/13 07:32:17;;;;;;;;;;;11.90;99.90;;;;;;5083420;27;1229;-54
2022/10/13 07:34:55;;;;;;;;;;;12.10;99.90;;;;;;5102513;27;1733;-55
2022/10/13 07:37:33;;;;;;;;;;;12.20;99.90;;;;;;5094244;27;1625;-54
2022/10/13 07:40:23;;;;;;;;;;;12.30;99.90;;;;;;5102528;27;1449;-52
2022/10/13 07:43:01;;;;;;;;;;;12.40;99.90;;;;;;5100416;27;1605;-55
2022/10/13 07:45:40;;;;;;;;;;;12.40;99.90;;;;;;5064144;27;1848;-55
2022/10/13 07:48:18;;;;;;;;;;;12.40;99.90;;;;;;5098060;27;1625;-56
2022/10/13 07:50:56;;;;;;;;;;;12.40;99.90;;;;;;5092760;27;1642;-56
2022/10/13 07:53:35;;;;;;;;;;;12.60;99.90;;;;;;5082429;27;1358;-54
2022/10/13 07:56:15;;;;;;;;;;;12.60;99.90;;;;;;5103692;27;1360;-56
2022/10/13 07:58:54;;;;;;;;;;;12.80;99.90;;;;;;5082743;27;1396;-54
2022/10/13 08:01:32;;;;;;;;;;;12.90;99.90;;;;;;5083587;27;1471;-55
2022/10/13 08:04:10;;;;;;;;;;;13.10;99.90;;;;;;5100389;27;1598;-56
2022/10/13 08:06:49;;;;;;;;;;;13.20;99.90;;;;;;5080303;27;1602;-55
2022/10/13 08:09:27;;;;;;;;;;;13.20;99.90;;;;;;5102508;27;1955;-55
2022/10/13 08:12:07;;;;;;;;;;;13.20;99.90;;;;;;5104162;27;1496;-57
2022/10/13 08:14:45;;;;;;;;;;;13.20;99.90;;;;;;5104151;27;1743;-57
2022/10/13 08:17:25;;;;;;;;;;;13.10;99.90;;;;;;5098642;27;1436;-54
2022/10/13 08:20:03;;;;;;;;;;;13.10;99.90;;;;;;5083307;27;1335;-56
2022/10/13 08:22:43;;;;;;;;;;;13.20;99.90;;;;;;5081449;27;1708;-54
2022/10/13 08:25:21;;;;;;;;;;;13.30;99.90;;;;;;5102930;27;1680;-56
2022/10/13 08:27:59;;;;;;;;;;;13.40;99.90;;;;;;5091927;27;1688;-54
2022/10/13 08:30:37;;;;;;;;;;;13.50;99.90;;;;;;5103200;27;1228;-53
2022/10/13 08:33:16;;;;;;;;;;;13.50;99.90;;;;;;5083712;27;1443;-57
2022/10/13 08:35:54;;;;;;;;;;;13.50;99.90;;;;;;5103394;27;1506;-55
2022/10/13 08:38:34;;;;;;;;;;;13.40;99.90;;;;;;5083810;27;1404;-56
2022/10/13 08:41:17;;;;;;;;;;;13.30;99.90;;;;;;5104193;27;1257;-57
2022/10/13 08:44:01;;;;;;;;;;;13.30;99.90;;;;;;5078387;27;1776;-57
2022/10/13 08:46:50;;;;;;;;;;;13.30;99.90;;;;;;5101879;27;1391;-54
2022/10/13 08:49:30;;;;;;;;;;;13.50;99.90;;;;;;5101745;27;1477;-54
2022/10/13 08:52:13;;;;;;;;;;;13.80;99.90;;;;;;5104957;27;1241;-56
2022/10/13 08:54:53;;;;;;;;;;;14.00;99.90;;;;;;5083918;27;1297;-56
2022/10/13 08:57:33;;;;;;;;;;;14.30;99.90;;;;;;5097039;27;1394;-54
2022/10/13 09:00:12;;;;;;;;;;;14.40;99.90;;;;;;5083239;27;1394;-56
2022/10/13 09:02:53;;;;;;;;;;;14.40;99.90;;;;;;5083832;27;1505;-55
2022/10/13 09:05:36;;;;;;;;;;;14.60;99.90;;;;;;5083032;27;1256;-55
2022/10/13 09:08:17;;;;;;;;;;;14.70;99.90;;;;;;5071256;27;1374;-55
2022/10/13 09:10:56;;;;;;;;;;;14.70;99.90;;;;;;5103539;27;1181;-55
2022/10/13 09:13:37;;;;;;;;;;;14.80;99.90;;;;;;5103543;27;1701;-55
2022/10/13 09:16:15;;;;;;;;;;;15.00;99.90;;;;;;5103566;27;1738;-56
2022/10/13 09:18:53;;;;;;;;;;;15.30;99.90;;;;;;5082822;27;1498;-53
2022/10/13 09:21:32;;;;;;;;;;;15.30;99.90;;;;;;5103926;27;1261;-55
2022/10/13 09:24:15;;;;;;;;;;;15.50;99.90;;;;;;5100195;27;1497;-55
2022/10/13 09:27:03;;;;;;;;;;;15.70;99.90;;;;;;5065141;27;1447;-54
2022/10/13 09:29:45;;;;;;;;;;;16.00;99.90;;;;;;5103133;27;1704;-55
2022/10/13 09:32:24;;;;;;;;;;;16.20;99.90;;;;;;5103070;27;1577;-57
2022/10/13 09:35:20;;;;;;;;;;;16.40;99.90;;;;;;5091836;27;1382;-54
2022/10/13 09:38:05;;;;;;;;;;;16.60;99.90;;;;;;5052000;27;1474;-54
2022/10/13 09:40:55;;;;;;;;;;;16.70;99.90;;;;;;5103308;27;1297;-56
2022/10/13 09:43:35;;;;;;;;;;;16.60;99.90;;;;;;5100533;27;1707;-54
2022/10/13 09:46:19;;;;;;;;;;;16.70;99.90;;;;;;5080119;27;1457;-54
2022/10/13 09:48:59;;;;;;;;;;;16.90;99.90;;;;;;5132866;22;1999;-53
2022/10/13 09:51:39;;;;;;;;;;;17.10;99.90;;;;;;5103656;27;1556;-51
2022/10/13 09:54:37;;;;;;;;;;;17.50;99.90;;;;;;5103187;27;2627;-50
2022/10/13 09:57:20;;;;;;;;;;;17.80;99.90;;;;;;5097954;27;1610;-53
2022/10/13 10:00:03;;;;;;;;;;;17.80;99.90;;;;;;5045017;27;1273;-50
2022/10/13 10:02:53;;;;;;;;;;;18.00;99.90;;;;;;5080157;27;1664;-55
2022/10/13 10:05:38;;;;;;;;;;;18.10;99.90;;;;;;5102484;27;1212;-51
2022/10/13 10:08:21;;;;;;;;;;;18.20;99.90;;;;;;5094777;27;1678;-53
2022/10/13 10:11:02;;;;;;;;;;;18.30;99.90;;;;;;5104005;27;1488;-51
2022/10/13 10:13:40;;;;;;;;;;;18.30;99.90;;;;;;5091693;27;1359;-51
2022/10/13 10:16:29;;;;;;;;;;;18.40;99.90;;;;;;5102626;27;1721;-52
2022/10/13 10:19:14;;;;;;;;;;;18.30;99.90;;;;;;5088666;27;1446;-51
2022/10/13 10:22:02;;;;;;;;;;;18.30;99.90;;;;;;5105127;27;1309;-51
2022/10/13 10:24:46;;;;;;;;;;;18.40;99.90;;;;;;5082710;27;1797;-52
2022/10/13 10:27:28;;;;;;;;;;;18.50;99.90;;;;;;5102715;27;1209;-51
2022/10/13 10:30:12;;;;;;;;;;;18.60;99.90;;;;;;5104230;27;1644;-54
2022/10/13 10:32:53;;;;;;;;;;;18.50;99.90;;;;;;5121729;27;1292;-51
2022/10/13 10:35:41;;;;;;;;;;;18.70;99.90;;;;;;5104071;27;1307;-52
2022/10/13 10:38:25;;;;;;;;;;;18.80;99.90;;;;;;5095648;27;1317;-50
2022/10/13 10:41:12;;;;;;;;;;;18.60;99.90;;;;;;5083734;27;1639;-50
2022/10/13 10:43:57;;;;;;;;;;;18.40;99.90;;;;;;5078611;27;1776;-53
2022/10/13 10:46:36;;;;;;;;;;;18.10;99.90;;;;;;5079025;27;1815;-50
2022/10/13 10:49:17;;;;;;;;;;;18.00;99.90;;;;;;5081882;27;1323;-51
2022/10/13 10:51:57;;;;;;;;;;;18.10;99.90;;;;;;5083152;27;1594;-53
2022/10/13 10:54:40;;;;;;;;;;;18.10;99.90;;;;;;5104437;27;1260;-51
2022/10/13 10:57:23;;;;;;;;;;;17.90;99.90;;;;;;5104228;27;1385;-51
2022/10/13 11:00:09;;;;;;;;;;;17.80;99.90;;;;;;5103655;27;1293;-51
2022/10/13 11:02:52;;;;;;;;;;;17.70;99.90;;;;;;5156096;27;1750;-52
2022/10/13 11:05:52;;;;;;;;;;;17.50;99.90;;;;;;5079105;27;2082;-52
2022/10/13 11:08:39;;;;;;;;;;;17.40;99.90;;;;;;5101872;27;1452;-54
2022/10/13 11:11:41;;;;;;;;;;;17.20;99.90;;;;;;5102979;27;1570;-54
2022/10/13 11:14:30;;;;;;;;;;;17.00;99.90;;;;;;5103170;27;1361;-54
2022/10/13 11:17:16;;;;;;;;;;;17.00;99.90;;;;;;5062385;27;1361;-55
2022/10/13 11:19:56;;;;;;;;;;;17.10;99.90;;;;;;5103312;27;1583;-51
2022/10/13 11:22:35;;;;;;;;;;;17.10;99.90;;;;;;5080149;27;1487;-53
2022/10/13 11:25:30;;;;;;;;;;;17.00;99.90;;;;;;5066303;27;1937;-53
2022/10/13 11:28:26;;;;;;;;;;;16.90;99.90;;;;;;5100727;27;1338;-52
2022/10/13 11:31:18;;;;;;;;;;;16.90;99.90;;;;;;5101912;27;1398;-52
2022/10/13 11:33:59;;;;;;;;;;;16.70;99.90;;;;;;5100408;27;1655;-53
2022/10/13 11:36:51;;;;;;;;;;;16.60;99.90;;;;;;5062342;27;1485;-51
2022/10/13 11:39:40;;;;;;;;;;;16.60;99.90;;;;;;5064055;27;1691;-51
2022/10/13 11:42:42;;;;;;;;;;;16.60;99.90;;;;;;5083594;27;1510;-55
2022/10/13 11:45:29;;;;;;;;;;;16.60;99.90;;;;;;5066987;27;1652;-53
2022/10/13 11:48:17;;;;;;;;;;;16.30;99.90;;;;;;5098767;27;1849;-54
2022/10/13 11:51:04;;;;;;;;;;;16.20;99.90;;;;;;5062314;27;1408;-51
2022/10/13 11:53:47;;;;;;;;;;;16.00;99.90;;;;;;5108297;27;1300;-52
2022/10/13 11:56:32;;;;;;;;;;;16.00;99.90;;;;;;5097643;27;1528;-52
2022/10/13 11:59:20;;;;;;;;;;;16.10;99.90;;;;;;5102574;27;1421;-52
2022/10/13 12:01:59;;;;;;;;;;;16.20;99.90;;;;;;5083641;27;2207;-52
2022/10/13 12:04:39;;;;;;;;;;;16.20;99.90;;;;;;5103854;27;1586;-52
2022/10/13 12:07:21;;;;;;;;;;;16.20;99.90;;;;;;5082781;27;1226;-54
2022/10/13 12:10:00;;;;;;;;;;;16.10;99.90;;;;;;5103436;27;1300;-50
2022/10/13 12:12:45;;;;;;;;;;;15.90;99.90;;;;;;5103759;27;1248;-52
2022/10/13 12:15:34;;;;;;;;;;;15.70;99.90;;;;;;5083683;27;1214;-53
2022/10/13 12:18:23;;;;;;;;;;;15.70;99.90;;;;;;5103945;27;1295;-51
2022/10/13 12:21:03;;;;;;;;;;;15.70;99.90;;;;;;5102256;27;1374;-52
2022/10/13 12:23:41;;;;;;;;;;;15.70;99.90;;;;;;5099742;27;1615;-54
2022/10/13 12:26:21;;;;;;;;;;;15.60;99.90;;;;;;5068007;27;1734;-53
2022/10/13 12:29:01;;;;;;;;;;;15.60;99.90;;;;;;5077086;27;1320;-54
2022/10/13 12:31:42;;;;;;;;;;;15.40;99.90;;;;;;5103789;27;1567;-52
2022/10/13 12:34:23;;;;;;;;;;;15.30;99.90;;;;;;5048416;28;1620;-51
2022/10/13 12:37:03;;;;;;;;;;;15.40;99.90;;;;;;5100793;27;1505;-51
2022/10/13 12:39:42;;;;;;;;;;;15.30;99.90;;;;;;5101685;27;1267;-53
2022/10/13 12:42:24;;;;;;;;;;;15.40;99.90;;;;;;5082173;27;1707;-55
2022/10/13 12:45:04;;;;;;;;;;;15.50;99.90;;;;;;5083662;27;1679;-51
2022/10/13 12:47:48;;;;;;;;;;;15.60;99.90;;;;;;5063615;27;1640;-51
2022/10/13 12:50:36;;;;;;;;;;;15.70;99.90;;;;;;5101526;27;1753;-55
2022/10/13 12:53:17;;;;;;;;;;;15.90;99.90;;;;;;5065346;27;1405;-53
2022/10/13 12:55:58;;;;;;;;;;;16.10;99.90;;;;;;5103316;27;1285;-53
2022/10/13 12:58:42;;;;;;;;;;;16.20;99.90;;;;;;5083835;27;1349;-51
2022/10/13 13:01:27;;;;;;;;;;;16.20;99.90;;;;;;5105494;27;1795;-53
2022/10/13 13:04:17;;;;;;;;;;;16.20;99.90;;;;;;5101672;27;1939;-53
2022/10/13 13:06:56;;;;;;;;;;;16.10;99.90;;;;;;5099564;27;1834;-52
2022/10/13 13:09:37;;;;;;;;;;;15.90;99.90;;;;;;5101462;27;1337;-52
2022/10/13 13:12:21;;;;;;;;;;;15.80;99.90;;;;;;5103646;27;1267;-54
2022/10/13 13:15:17;;;;;;;;;;;15.70;99.90;;;;;;5104515;27;1418;-53
2022/10/13 13:18:16;;;;;;;;;;;15.60;99.90;;;;;;5099647;27;1401;-52
2022/10/13 13:20:55;;;;;;;;;;;15.60;99.90;;;;;;5103850;27;1276;-54
2022/10/13 13:23:34;;;;;;;;;;;15.70;99.90;;;;;;5104520;27;1712;-52
2022/10/13 13:26:16;;;;;;;;;;;15.70;99.90;;;;;;5084125;27;1309;-51
2022/10/13 13:28:56;;;;;;;;;;;15.60;99.90;;;;;;5104327;27;1612;-52
2022/10/13 13:31:35;;;;;;;;;;;15.40;99.90;;;;;;5104214;27;1297;-53
2022/10/13 13:34:13;;;;;;;;;;;15.20;99.90;;;;;;5079606;27;1554;-53
2022/10/13 13:36:52;;;;;;;;;;;15.10;99.90;;;;;;5102433;27;1391;-52
2022/10/13 13:39:30;;;;;;;;;;;14.90;99.90;;;;;;5079630;27;1440;-53
2022/10/13 13:42:11;;;;;;;;;;;14.80;99.90;;;;;;5076782;27;1706;-52
2022/10/13 13:44:51;;;;;;;;;;;14.60;99.90;;;;;;5092716;27;1686;-54
2022/10/13 13:47:29;;;;;;;;;;;14.50;99.90;;;;;;5101871;27;1390;-54
2022/10/13 13:50:13;;;;;;;;;;;14.40;99.90;;;;;;5081142;27;1839;-54
2022/10/13 13:52:52;;;;;;;;;;;14.40;99.90;;;;;;5065512;27;1386;-53
2022/10/13 13:55:31;;;;;;;;;;;14.40;99.90;;;;;;5089876;27;1667;-53
2022/10/13 13:58:10;;;;;;;;;;;14.40;99.90;;;;;;5076796;27;1633;-54
2022/10/13 14:00:49;;;;;;;;;;;14.40;99.90;;;;;;5102535;27;1378;-55
2022/10/13 14:03:27;;;;;;;;;;;14.40;99.90;;;;;;5102801;27;1313;-53
2022/10/13 14:06:05;;;;;;;;;;;14.40;99.90;;;;;;5099801;27;1454;-55
2022/10/13 14:08:45;;;;;;;;;;;14.40;99.90;;;;;;5079254;27;1390;-53
2022/10/13 14:11:23;;;;;;;;;;;14.40;99.90;;;;;;5082678;27;1761;-53
2022/10/13 14:14:01;;;;;;;;;;;14.50;99.90;;;;;;5099416;27;1711;-52
2022/10/13 14:16:40;;;;;;;;;;;14.50;99.90;;;;;;5103489;27;1288;-52
2022/10/13 14:19:20;;;;;;;;;;;14.50;99.90;;;;;;5085674;27;1632;-53
2022/10/13 14:21:58;;;;;;;;;;;14.50;99.90;;;;;;5084082;27;1293;-55
2022/10/13 14:24:36;;;;;;;;;;;14.40;99.90;;;;;;5104523;27;1308;-53
2022/10/13 14:27:16;;;;;;;;;;;14.40;99.90;;;;;;5103461;27;1450;-54
2022/10/13 14:29:54;;;;;;;;;;;14.30;99.90;;;;;;5103745;27;1465;-54
2022/10/13 14:32:32;;;;;;;;;;;14.30;99.90;;;;;;5063137;27;1636;-52
2022/10/13 14:35:10;;;;;;;;;;;14.20;99.90;;;;;;5103607;27;1472;-52
2022/10/13 14:37:49;;;;;;;;;;;14.10;99.90;;;;;;5099201;27;1364;-53
2022/10/13 14:40:28;;;;;;;;;;;14.10;99.90;;;;;;5083240;27;1749;-51
2022/10/13 14:43:07;;;;;;;;;;;14.20;99.90;;;;;;5104160;27;1226;-52
2022/10/13 14:45:45;;;;;;;;;;;14.40;99.90;;;;;;5101961;27;1293;-53
2022/10/13 14:48:25;;;;;;;;;;;14.60;99.90;;;;;;5104032;27;1713;-51
2022/10/13 14:51:05;;;;;;;;;;;14.70;99.90;;;;;;5104913;27;1349;-51
2022/10/13 14:53:44;;;;;;;;;;;14.90;99.90;;;;;;5084830;27;1532;-51
2022/10/13 14:56:24;;;;;;;;;;;15.00;99.90;;;;;;5104455;27;1225;-53
2022/10/13 14:59:05;;;;;;;;;;;15.10;99.90;;;;;;5101128;27;1797;-53
2022/10/13 15:01:50;;;;;;;;;;;15.10;99.90;;;;;;5122377;27;1229;-52
2022/10/13 15:04:28;;;;;;;;;;;15.10;99.90;;;;;;5103240;27;1558;-53
2022/10/13 15:07:07;;;;;;;;;;;15.10;99.90;;;;;;5103551;27;1725;-54
2022/10/13 15:09:48;;;;;;;;;;;15.10;99.90;;;;;;5083899;27;1531;-52
2022/10/13 15:12:26;;;;;;;;;;;15.20;99.90;;;;;;5083832;27;1342;-55
2022/10/13 15:15:05;;;;;;;;;;;15.20;99.90;;;;;;5089282;27;1445;-52
2022/10/13 15:17:44;;;;;;;;;;;15.10;99.90;;;;;;5078755;27;2447;-52
2022/10/13 15:20:23;;;;;;;;;;;15.00;99.90;;;;;;5103671;27;1409;-52
2022/10/13 15:23:01;;;;;;;;;;;14.90;99.90;;;;;;5101278;27;1981;-52
2022/10/13 15:25:39;;;;;;;;;;;14.80;99.90;;;;;;5118949;27;1655;-51
2022/10/13 15:28:20;;;;;;;;;;;14.70;99.90;;;;;;5104264;27;1679;-54
2022/10/13 15:30:59;;;;;;;;;;;14.60;99.90;;;;;;5104513;27;1565;-54
2022/10/13 15:33:37;;;;;;;;;;;14.40;99.90;;;;;;5099480;27;2032;-52
2022/10/13 15:36:15;;;;;;;;;;;14.30;99.90;;;;;;5102080;27;1531;-53
2022/10/13 15:38:53;;;;;;;;;;;14.20;99.90;;;;;;5089089;27;1348;-51
2022/10/13 15:41:32;;;;;;;;;;;14.10;99.90;;;;;;5101823;27;1631;-51
2022/10/13 15:44:10;;;;;;;;;;;14.00;99.90;;;;;;5082055;27;1253;-52
2022/10/13 15:46:48;;;;;;;;;;;14.00;99.90;;;;;;5103454;27;1517;-51
2022/10/13 15:49:26;;;;;;;;;;;13.90;99.90;;;;;;5060716;27;1998;-52
2022/10/13 15:52:05;;;;;;;;;;;13.90;99.90;;;;;;5104818;27;1362;-52
2022/10/13 15:54:43;;;;;;;;;;;13.70;99.90;;;;;;5098857;27;2076;-52
2022/10/13 15:57:21;;;;;;;;;;;13.60;99.90;;;;;;5104241;27;1316;-55